createdAt,value
2022-08-07T00:04:49.077Z,18.04
2022-08-07T00:10:11.062Z,18.02
2022-08-07T00:15:16.356Z,17.96
2022-08-07T00:20:29.749Z,17.84
2022-08-07T00:25:41.464Z,17.81
2022-08-07T00:30:44.676Z,17.77
2022-08-07T00:35:49.605Z,17.79
2022-08-07T00:40:54.108Z,17.74
2022-08-07T00:45:57.116Z,17.66
2022-08-07T00:51:00.373Z,17.56
2022-08-07T00:56:05.425Z,17.47
2022-08-07T01:01:17.150Z,17.43
2022-08-07T01:06:20.465Z,17.32
2022-08-07T01:12:24.104Z,17.36
2022-08-07T01:16:50.757Z,17.31
2022-08-07T01:21:56.133Z,17.21
2022-08-07T01:27:00.215Z,17.18
2022-08-07T01:32:05.221Z,17.11
2022-08-07T01:37:12.255Z,17.05
2022-08-07T01:42:39.014Z,16.96
2022-08-07T01:48:18.155Z,16.94
2022-08-07T01:53:08.761Z,16.90
2022-08-07T01:58:27.300Z,16.94
2022-08-07T02:03:42.775Z,16.81
2022-08-07T02:08:55.247Z,16.79
2022-08-07T02:14:02.373Z,16.71
2022-08-07T02:20:04.797Z,16.63
2022-08-07T02:24:31.799Z,16.61
2022-08-07T02:29:43.536Z,16.54
2022-08-07T02:34:58.197Z,16.51
2022-08-07T02:40:29.823Z,16.54
2022-08-07T02:46:00.971Z,16.54
2022-08-07T02:50:53.640Z,16.45
2022-08-07T02:56:03.622Z,16.36
2022-08-07T03:01:15.953Z,16.30
2022-08-07T03:06:32.083Z,16.35
2022-08-07T03:11:38.920Z,16.29
2022-08-07T03:16:54.647Z,16.28
2022-08-07T03:21:58.728Z,16.19
2022-08-07T03:27:04.494Z,16.20
2022-08-07T03:32:13.319Z,16.19
2022-08-07T03:37:19.210Z,16.14
2022-08-07T03:42:34.708Z,16.22
2022-08-07T03:47:45.026Z,16.25
2022-08-07T03:52:54.889Z,16.20
2022-08-07T03:58:34.252Z,16.34
2022-08-07T04:03:23.109Z,16.31
2022-08-07T04:08:26.716Z,16.35
2022-08-07T04:14:09.284Z,16.32
2022-08-07T04:18:59.634Z,16.31
2022-08-07T04:24:10.446Z,16.39
2022-08-07T04:29:48.909Z,16.47
2022-08-07T04:34:57.832Z,16.44
2022-08-07T04:40:00.909Z,16.56
2022-08-07T04:45:08.204Z,16.63
2022-08-07T04:50:13.252Z,16.64
2022-08-07T04:58:07.936Z,16.72
2022-08-07T05:00:48.251Z,16.77
2022-08-07T05:05:57.446Z,16.79
2022-08-07T05:11:06.514Z,16.80
2022-08-07T05:16:15.425Z,16.88
2022-08-07T05:21:59.073Z,16.89
2022-08-07T05:26:46.222Z,16.92
2022-08-07T05:31:52.928Z,16.96
2022-08-07T05:36:56.892Z,17.01
2022-08-07T05:42:05.333Z,17.09
2022-08-07T05:47:18.713Z,17.20
2022-08-07T05:52:36.091Z,17.14
2022-08-07T05:57:42.238Z,17.23
2022-08-07T06:02:49.297Z,17.31
2022-08-07T06:08:13.717Z,17.36
2022-08-07T06:13:15.985Z,17.44
2022-08-07T06:18:21.553Z,17.52
2022-08-07T06:24:36.944Z,17.51
2022-08-07T06:28:52.791Z,17.61
2022-08-07T06:33:57.253Z,17.62
2022-08-07T06:40:13.611Z,17.59
2022-08-07T06:44:25.594Z,17.63
2022-08-07T06:49:35.532Z,17.75
2022-08-07T06:55:33.879Z,17.79
2022-08-07T07:00:18.971Z,17.81
2022-08-07T07:06:03.074Z,17.85
2022-08-07T07:10:54.785Z,17.96
2022-08-07T07:16:05.228Z,17.97
2022-08-07T07:21:19.559Z,17.90
2022-08-07T07:26:33.330Z,17.99
2022-08-07T07:31:44.543Z,18.03
2022-08-07T07:36:54.236Z,18.08
2022-08-07T07:42:08.800Z,18.10
2022-08-07T07:47:23.042Z,18.16
2022-08-07T07:52:42.463Z,18.30
2022-08-07T07:57:53.814Z,18.29
2022-08-07T08:03:05.064Z,18.31
2022-08-07T08:08:35.417Z,18.35
2022-08-07T08:13:43.802Z,18.52
2022-08-07T08:19:00.412Z,18.57
2022-08-07T08:24:48.058Z,18.60
2022-08-07T08:30:04.365Z,18.86
2022-08-07T08:35:10.584Z,18.87
2022-08-07T08:40:23.510Z,18.85
2022-08-07T08:45:58.435Z,18.85
2022-08-07T08:51:03.388Z,18.87
2022-08-07T08:56:24.592Z,18.96
2022-08-07T09:01:40.053Z,19.06
2022-08-07T09:06:54.557Z,19.10
2022-08-07T09:12:30.778Z,19.17
2022-08-07T09:18:00.382Z,19.32
2022-08-07T09:24:31.970Z,19.47
2022-08-07T09:30:00.560Z,19.38
2022-08-07T09:34:08.356Z,19.51
2022-08-07T09:39:52.972Z,19.79
2022-08-07T09:47:50.259Z,20.04
2022-08-07T09:50:20.088Z,20.34
2022-08-07T09:55:36.852Z,20.79
2022-08-07T10:01:08.369Z,22.22
2022-08-07T10:06:25.737Z,30.57
2022-08-07T10:12:02.287Z,31.67
2022-08-07T10:17:14.509Z,27.65
2022-08-07T10:22:33.701Z,25.99
2022-08-07T10:27:51.096Z,25.57
2022-08-07T10:33:08.468Z,25.55
2022-08-07T10:38:35.881Z,25.50
2022-08-07T10:43:54.349Z,25.38
2022-08-07T10:49:15.958Z,25.11
2022-08-07T10:54:33.602Z,25.34
2022-08-07T10:59:47.472Z,25.53
2022-08-07T11:05:01.082Z,25.68
2022-08-07T11:10:17.927Z,25.87
2022-08-07T11:15:31.405Z,26.11
2022-08-07T11:20:40.538Z,26.33
2022-08-07T11:25:50.165Z,26.21
2022-08-07T11:30:56.112Z,26.45
2022-08-07T11:36:10.459Z,26.55
2022-08-07T11:41:22.112Z,26.75
2022-08-07T11:46:44.827Z,26.76
2022-08-07T11:52:00.331Z,27.07
2022-08-07T11:57:12.740Z,27.26
2022-08-07T12:02:30.317Z,27.53
2022-08-07T12:07:39.032Z,27.92
2022-08-07T12:12:45.019Z,28.25
2022-08-07T12:17:59.280Z,28.37
2022-08-07T12:23:37.211Z,28.43
2022-08-07T12:28:49.856Z,28.21
2022-08-07T12:34:01.952Z,28.23
2022-08-07T12:39:09.493Z,28.34
2022-08-07T12:44:33.686Z,28.11
2022-08-07T12:49:48.733Z,28.20
2022-08-07T12:55:03.761Z,28.16
2022-08-07T13:00:16.606Z,28.03
2022-08-07T13:06:04.113Z,28.08
2022-08-07T13:11:17.053Z,28.16
2022-08-07T13:16:28.321Z,27.53
2022-08-07T13:21:50.433Z,27.57
2022-08-07T13:27:05.437Z,26.67
2022-08-07T13:32:31.173Z,27.21
2022-08-07T13:37:58.777Z,27.40
2022-08-07T13:43:06.407Z,27.60
2022-08-07T13:48:27.392Z,27.71
2022-08-07T13:54:00.160Z,28.02
2022-08-07T13:59:10.250Z,28.15
2022-08-07T14:04:21.445Z,28.02
2022-08-07T14:10:00.937Z,28.00
2022-08-07T14:14:52.479Z,27.77
2022-08-07T14:20:44.581Z,27.72
2022-08-07T14:25:26.279Z,27.78
2022-08-07T14:30:34.063Z,27.75
2022-08-07T14:35:47.407Z,27.78
2022-08-07T14:40:55.236Z,27.68
2022-08-07T14:45:59.559Z,27.47
2022-08-07T14:51:07.424Z,26.87
2022-08-07T14:56:30.380Z,26.17
2022-08-07T15:01:42.934Z,25.43
2022-08-07T15:06:58.467Z,24.92
2022-08-07T15:12:09.764Z,24.95
2022-08-07T15:17:55.286Z,25.14
2022-08-07T15:28:34.827Z,24.94
2022-08-07T15:33:43.063Z,24.56
2022-08-07T15:38:59.099Z,24.26
2022-08-07T15:50:03.922Z,24.37
2022-08-07T15:55:02.318Z,24.31
2022-08-07T16:00:06.920Z,24.24
2022-08-07T16:05:15.897Z,24.08
2022-08-07T16:10:23.051Z,23.90
2022-08-07T16:15:42.111Z,23.75
2022-08-07T16:22:01.254Z,23.67
2022-08-07T16:26:36.068Z,23.51
2022-08-07T16:31:51.723Z,23.37
2022-08-07T16:38:06.500Z,23.23
2022-08-07T16:42:53.549Z,23.13
2022-08-07T16:48:28.443Z,23.02
2022-08-07T16:54:06.394Z,22.85
2022-08-07T16:59:18.345Z,22.76
2022-08-07T17:04:34.161Z,22.71
2022-08-07T17:10:06.939Z,22.60
2022-08-07T17:15:19.413Z,22.44
2022-08-07T17:20:30.905Z,22.36
2022-08-07T17:25:51.119Z,22.30
2022-08-07T17:31:16.073Z,22.19
2022-08-07T17:36:26.117Z,22.03
2022-08-07T17:42:04.235Z,21.96
2022-08-07T17:47:03.601Z,21.89
2022-08-07T17:52:12.872Z,21.79
2022-08-07T17:57:20.027Z,21.75
2022-08-07T18:02:29.171Z,21.66
2022-08-07T18:07:43.746Z,21.60
2022-08-07T18:13:11.412Z,21.46
2022-08-07T18:18:46.695Z,21.40
2022-08-07T18:24:00.623Z,21.30
2022-08-07T18:30:04.308Z,21.16
2022-08-07T18:35:00.688Z,21.02
2022-08-07T18:40:38.599Z,20.96
2022-08-07T18:46:21.937Z,20.93
2022-08-07T18:51:18.325Z,20.82
2022-08-07T18:56:57.909Z,20.66
2022-08-07T19:02:33.112Z,20.62
2022-08-07T19:07:51.201Z,20.48
2022-08-07T19:12:59.567Z,20.52
2022-08-07T19:18:34.441Z,20.43
2022-08-07T19:23:59.111Z,20.34
2022-08-07T19:30:55.625Z,20.26
2022-08-07T19:34:33.724Z,20.20
2022-08-07T19:39:56.434Z,20.16
2022-08-07T19:45:08.633Z,20.06
2022-08-07T19:50:41.536Z,20.04
2022-08-07T19:55:56.764Z,19.97
2022-08-07T20:01:01.684Z,19.91
2022-08-07T20:06:06.438Z,19.85
2022-08-07T20:11:34.155Z,19.80
2022-08-07T20:16:48.082Z,19.73
2022-08-07T20:21:58.054Z,19.65
2022-08-07T20:27:07.457Z,19.53
2022-08-07T20:32:22.210Z,19.50
2022-08-07T20:37:34.137Z,19.43
2022-08-07T20:42:56.439Z,19.32
2022-08-07T20:48:00.041Z,19.30
2022-08-07T20:53:03.227Z,19.26
2022-08-07T20:58:19.268Z,19.23
2022-08-07T21:03:26.008Z,19.11
2022-08-07T21:08:36.632Z,19.10
2022-08-07T21:14:29.794Z,19.01
2022-08-07T21:19:14.035Z,18.98
2022-08-07T21:24:21.356Z,18.95
2022-08-07T21:29:33.433Z,18.92
2022-08-07T21:34:46.251Z,18.86
2022-08-07T21:39:54.934Z,18.80
2022-08-07T21:45:41.997Z,18.77
2022-08-07T21:50:33.202Z,18.69
2022-08-07T21:55:42.504Z,18.65
2022-08-07T22:00:50.207Z,18.59
2022-08-07T22:05:56.157Z,18.56
2022-08-07T22:11:00.684Z,18.48
2022-08-07T22:16:43.139Z,18.46
2022-08-07T22:22:04.984Z,18.11
2022-08-07T22:27:03.127Z,18.21
2022-08-07T22:32:12.948Z,18.15
2022-08-07T22:38:03.212Z,18.14
2022-08-07T22:42:54.292Z,18.08
2022-08-07T22:48:31.402Z,18.10
2022-08-07T22:54:07.385Z,18.11
2022-08-07T22:59:14.553Z,18.12
2022-08-07T23:04:29.939Z,18.06
2022-08-07T23:10:04.036Z,18.10
2022-08-07T23:15:10.600Z,18.06
2022-08-07T23:20:52.379Z,17.80
2022-08-07T23:26:02.865Z,17.75
2022-08-07T23:32:50.242Z,17.71
2022-08-07T23:37:18.627Z,17.63
2022-08-07T23:42:21.792Z,17.82
2022-08-07T23:47:42.120Z,17.92
2022-08-07T23:53:06.560Z,17.90
2022-08-07T23:58:18.764Z,17.83
